Time,TemperatureF,DewpointF,PressureIn,WindDirection,WindDirectionDegrees,WindSpeedMPH,WindSpeedGustMPH,Humidity,HourlyPrecipIn,Conditions,Clouds,dailyrainin,SoftwareType,DateUTC
2013-08-17 00:23:00,60.0,53.0,30.24,SSW,200,0.0,0.0,79,0.00,,,0.00,,2013-08-17 04:23:00,
2013-08-17 00:53:00,60.0,53.0,30.25,SSW,200,0.0,0.0,79,0.00,,,0.00,,2013-08-17 04:53:00,
2013-08-17 01:13:00,60.0,53.0,30.25,SSW,200,0.0,0.0,79,0.00,,,0.00,,2013-08-17 05:13:00,
2013-08-17 01:22:00,59.0,52.0,30.25,SSW,200,0.0,0.0,79,0.00,,,0.00,,2013-08-17 05:22:00,
2013-08-17 01:52:00,59.0,53.0,30.25,SSW,200,0.0,0.0,81,0.00,,,0.00,,2013-08-17 05:52:00,
2013-08-17 02:21:00,59.0,53.0,30.25,SSW,200,0.0,0.0,80,0.00,,,0.00,,2013-08-17 06:21:00,
2013-08-17 02:52:00,58.0,52.0,30.25,SSW,200,0.0,0.0,80,0.00,,,0.00,,2013-08-17 06:52:00,
2013-08-17 03:11:00,58.0,52.0,30.25,SSW,200,0.0,0.0,81,0.00,,,0.00,,2013-08-17 07:11:00,
2013-08-17 03:22:00,58.0,52.0,30.26,SSW,200,0.0,0.0,81,0.00,,,0.00,,2013-08-17 07:22:00,
2013-08-17 03:52:00,57.0,52.0,30.26,SSW,200,0.0,0.0,84,0.00,,,0.00,,2013-08-17 07:52:00,
2013-08-17 04:11:00,56.0,51.0,30.26,SSW,200,0.0,0.0,84,0.00,,,0.00,,2013-08-17 08:11:00,
2013-08-17 04:21:00,56.0,52.0,30.26,SSW,200,0.0,0.0,85,0.00,,,0.00,,2013-08-17 08:21:00,
2013-08-17 04:52:00,56.0,52.0,30.27,SSW,200,0.0,0.0,86,0.00,,,0.00,,2013-08-17 08:52:00,
2013-08-17 05:11:00,56.0,52.0,30.27,SSW,200,0.0,0.0,87,0.00,,,0.00,,2013-08-17 09:11:00,
2013-08-17 05:21:00,56.0,52.0,30.27,SSW,200,0.0,0.0,88,0.00,,,0.00,,2013-08-17 09:21:00,
2013-08-17 05:43:00,56.0,52.0,30.27,SSW,200,0.0,0.0,88,0.00,,,0.00,,2013-08-17 09:43:00,
2013-08-17 05:53:00,56.0,53.0,30.27,SSW,200,0.0,0.0,89,0.00,,,0.00,,2013-08-17 09:53:00,
2013-08-17 06:12:00,56.0,52.0,30.27,SSW,200,0.0,0.0,88,0.00,,,0.00,,2013-08-17 10:12:00,
2013-08-17 06:23:00,56.0,52.0,30.27,SSW,200,0.0,0.0,88,0.00,,,0.00,,2013-08-17 10:23:00,
2013-08-17 06:53:00,55.0,52.0,30.28,SSW,200,0.0,0.0,89,0.00,,,0.00,,2013-08-17 10:53:00,
2013-08-17 07:12:00,55.0,52.0,30.28,SSW,200,0.0,0.0,89,0.00,,,0.00,,2013-08-17 11:12:00,
2013-08-17 07:22:00,55.0,52.0,30.29,SSW,200,0.0,0.0,89,0.00,,,0.00,,2013-08-17 11:22:00,
2013-08-17 07:52:00,56.0,53.0,30.29,SSW,200,0.0,0.0,90,0.00,,,0.00,,2013-08-17 11:52:00,
2013-08-17 08:11:00,57.0,54.0,30.30,SSW,200,0.0,0.0,90,0.00,,,0.00,,2013-08-17 12:11:00,
2013-08-17 08:21:00,58.0,55.0,30.30,SSW,200,0.0,0.0,90,0.00,,,0.00,,2013-08-17 12:21:00,
2013-08-17 08:52:00,60.0,57.0,30.30,WNW,297,0.0,0.0,89,0.00,,,0.00,,2013-08-17 12:52:00,
2013-08-17 09:11:00,62.0,58.0,30.31,East,90,0.0,5.0,87,0.00,,,0.00,,2013-08-17 13:11:00,
2013-08-17 09:21:00,64.0,58.0,30.30,NE,40,0.0,2.0,80,0.00,,,0.00,,2013-08-17 13:21:00,
2013-08-17 09:52:00,67.0,58.0,30.32,East,97,0.0,3.0,73,0.00,,,0.00,,2013-08-17 13:52:00,
2013-08-17 10:11:00,70.0,58.0,30.32,NNE,16,0.0,2.0,66,0.00,,,0.00,,2013-08-17 14:11:00,
2013-08-17 10:21:00,73.0,59.0,30.32,NNE,28,1.0,3.0,62,0.00,,,0.00,,2013-08-17 14:21:00,
2013-08-17 10:42:00,74.0,60.0,30.32,NNW,348,0.0,5.0,61,0.00,,,0.00,,2013-08-17 14:42:00,
2013-08-17 10:52:00,76.0,60.0,30.32,NNW,337,0.0,4.0,58,0.00,,,0.00,,2013-08-17 14:52:00,
2013-08-17 11:11:00,76.0,59.0,30.32,North,355,1.0,4.0,56,0.00,,,0.00,,2013-08-17 15:11:00,
2013-08-17 11:22:00,77.0,60.0,30.32,ESE,120,1.0,4.0,55,0.00,,,0.00,,2013-08-17 15:22:00,
2013-08-17 11:44:00,78.0,59.0,30.32,SE,125,1.0,6.0,52,0.00,,,0.00,,2013-08-17 15:44:00,
2013-08-17 11:54:00,77.0,59.0,30.31,SE,137,1.0,5.0,53,0.00,,,0.00,,2013-08-17 15:54:00,
2013-08-17 12:12:00,80.0,60.0,30.31,North,360,0.0,6.0,51,0.00,,,0.00,,2013-08-17 16:12:00,
2013-08-17 12:23:00,80.0,58.0,30.31,NNW,327,0.0,4.0,47,0.00,,,0.00,,2013-08-17 16:23:00,
2013-08-17 12:53:00,83.0,58.0,30.30,East,92,1.0,4.0,42,0.00,,,0.00,,2013-08-17 16:53:00,
2013-08-17 13:12:00,82.0,59.0,30.30,South,176,0.0,1.0,45,0.00,,,0.00,,2013-08-17 17:12:00,
2013-08-17 13:23:00,83.0,58.0,30.30,ESE,113,0.0,2.0,43,0.00,,,0.00,,2013-08-17 17:23:00,
2013-08-17 13:52:00,86.0,57.0,30.30,NW,309,0.0,1.0,37,0.00,,,0.00,,2013-08-17 17:52:00,
2013-08-17 14:12:00,84.0,58.0,30.30,NNW,344,1.0,3.0,42,0.00,,,0.00,,2013-08-17 18:12:00,
2013-08-17 14:21:00,85.0,58.0,30.30,WNW,298,0.0,3.0,40,0.00,,,0.00,,2013-08-17 18:21:00,
2013-08-17 14:42:00,85.0,57.0,30.29,NNW,337,1.0,4.0,39,0.00,,,0.00,,2013-08-17 18:42:00,
2013-08-17 14:52:00,82.0,57.0,30.29,North,5,0.0,2.0,42,0.00,,,0.00,,2013-08-17 18:52:00,
2013-08-17 15:11:00,81.0,57.0,30.29,WNW,301,0.0,2.0,44,0.00,,,0.00,,2013-08-17 19:11:00,
2013-08-17 15:21:00,80.0,57.0,30.28,NNE,32,0.0,1.0,46,0.00,,,0.00,,2013-08-17 19:21:00,
2013-08-17 15:52:00,80.0,59.0,30.28,NNE,32,0.0,1.0,49,0.00,,,0.00,,2013-08-17 19:52:00,
2013-08-17 16:11:00,81.0,59.0,30.28,WNW,302,0.0,3.0,47,0.00,,,0.00,,2013-08-17 20:11:00,
2013-08-17 16:21:00,80.0,59.0,30.27,WNW,302,0.0,1.0,49,0.00,,,0.00,,2013-08-17 20:21:00,
2013-08-17 16:52:00,80.0,58.0,30.27,NNW,333,0.0,1.0,47,0.00,,,0.00,,2013-08-17 20:52:00,
2013-08-17 17:22:00,78.0,58.0,30.28,NW,311,0.0,1.0,50,0.00,,,0.00,,2013-08-17 21:22:00,
2013-08-17 17:54:00,77.0,59.0,30.28,NW,311,0.0,0.0,53,0.00,,,0.00,,2013-08-17 21:54:00,
2013-08-17 18:13:00,77.0,60.0,30.28,ENE,62,0.0,2.0,56,0.00,,,0.00,,2013-08-17 22:13:00,
2013-08-17 18:23:00,76.0,59.0,30.28,North,355,0.0,1.0,56,0.00,,,0.00,,2013-08-17 22:23:00,
2013-08-17 18:52:00,75.0,62.0,30.28,North,355,0.0,0.0,65,0.00,,,0.00,,2013-08-17 22:52:00,
2013-08-17 19:22:00,73.0,61.0,30.28,North,355,0.0,0.0,66,0.00,,,0.00,,2013-08-17 23:22:00,
2013-08-17 19:52:00,71.0,59.0,30.29,North,355,0.0,0.0,67,0.00,,,0.00,,2013-08-17 23:52:00,
2013-08-17 20:21:00,69.0,60.0,30.28,North,355,0.0,0.0,73,0.00,,,0.00,,2013-08-18 00:21:00,
2013-08-17 20:42:00,69.0,61.0,30.29,North,355,0.0,0.0,75,0.00,,,0.00,,2013-08-18 00:42:00,
2013-08-17 20:52:00,68.0,60.0,30.28,North,355,0.0,0.0,75,0.00,,,0.00,,2013-08-18 00:52:00,
2013-08-17 21:11:00,68.0,59.0,30.29,North,355,0.0,0.0,74,0.00,,,0.00,,2013-08-18 01:11:00,
2013-08-17 21:21:00,67.0,59.0,30.29,North,355,0.0,0.0,75,0.00,,,0.00,,2013-08-18 01:21:00,
2013-08-17 21:42:00,66.0,58.0,30.30,North,355,0.0,0.0,76,0.00,,,0.00,,2013-08-18 01:42:00,
2013-08-17 21:52:00,66.0,59.0,30.30,North,355,0.0,0.0,79,0.00,,,0.00,,2013-08-18 01:52:00,
2013-08-17 22:11:00,65.0,59.0,30.30,North,355,0.0,0.0,80,0.00,,,0.00,,2013-08-18 02:11:00,
2013-08-17 22:21:00,65.0,59.0,30.30,North,355,0.0,0.0,81,0.00,,,0.00,,2013-08-18 02:21:00,
2013-08-17 22:42:00,65.0,59.0,30.30,North,355,0.0,0.0,81,0.00,,,0.00,,2013-08-18 02:42:00,
2013-08-17 22:52:00,64.0,58.0,30.30,North,355,0.0,0.0,81,0.00,,,0.00,,2013-08-18 02:52:00,
2013-08-17 23:21:00,64.0,58.0,30.31,North,355,0.0,0.0,81,0.00,,,0.00,,2013-08-18 03:21:00,
2013-08-17 23:53:00,63.0,57.0,30.31,North,355,0.0,0.0,81,0.00,,,0.00,,2013-08-18 03:53:00,